Time;durP1;ratioP1;P1;durP2;ratioP2;P2;SDS_P1;SDS_P2;PMS_P1;PMS_P2;Temp;Humidity;BMP_temperature;BMP_pressure;BME280_temperature;BME280_humidity;BME280_pressure;Samples;Min_cycle;Max_cycle;Signal;HPM_P1;HPM_P2
2022/10/26 00:01:40;;;;;;;21.50;14.48;;;;;;;9.45;100.00;101291.75;5032626;28;20123;-61
2022/10/26 00:04:05;;;;;;;22.38;14.60;;;;;;;9.46;100.00;101294.22;5032538;28;20023;-61
2022/10/26 00:06:30;;;;;;;21.60;14.75;;;;;;;9.47;100.00;101290.34;5032680;28;20106;-61
2022/10/26 00:08:56;;;;;;;23.10;15.60;;;;;;;9.48;100.00;101285.66;5032421;28;20126;-61
2022/10/26 00:11:22;;;;;;;22.83;14.50;;;;;;;9.49;100.00;101281.78;5032584;28;20076;-61
2022/10/26 00:13:48;;;;;;;21.13;14.60;;;;;;;9.46;100.00;101269.34;5032799;28;20029;-60
2022/10/26 00:16:24;;;;;;;22.80;14.55;;;;;;;9.51;100.00;101282.28;5032736;28;20111;-62
2022/10/26 00:18:49;;;;;;;23.33;15.38;;;;;;;9.53;100.00;101277.31;5030898;28;20477;-61
2022/10/26 00:21:16;;;;;;;21.88;15.05;;;;;;;9.51;100.00;101272.09;5032330;28;20022;-61
2022/10/26 00:23:41;;;;;;;22.73;15.40;;;;;;;9.52;100.00;101268.22;5032225;28;20075;-61
2022/10/26 00:26:07;;;;;;;22.40;15.52;;;;;;;9.54;100.00;101265.16;5056185;22;20045;-60
2022/10/26 00:28:33;;;;;;;22.45;14.93;;;;;;;9.55;100.00;101265.97;5051883;28;20036;-61
2022/10/26 00:31:04;;;;;;;22.80;15.38;;;;;;;9.57;100.00;101261.81;5051332;28;20029;-61
2022/10/26 00:33:31;;;;;;;23.13;15.20;;;;;;;9.58;100.00;101260.72;5051771;28;20337;-61
2022/10/26 00:35:56;;;;;;;21.70;14.98;;;;;;;9.57;100.00;101248.03;5050231;28;20036;-61
2022/10/26 00:38:22;;;;;;;25.50;16.15;;;;;;;9.60;100.00;101252.13;5051765;28;20033;-60
2022/10/26 00:40:48;;;;;;;23.00;15.10;;;;;;;9.62;100.00;101256.25;5051616;28;20124;-60
2022/10/26 00:43:22;;;;;;;22.83;15.82;;;;;;;9.66;100.00;101259.25;5051503;28;20420;-60
2022/10/26 00:45:51;;;;;;;25.38;15.70;;;;;;;9.60;100.00;101241.91;5051526;28;20033;-61
2022/10/26 00:48:28;;;;;;;22.73;16.17;;;;;;;9.62;100.00;101238.88;5051349;28;20461;-60
2022/10/26 00:50:57;;;;;;;22.90;16.48;;;;;;;9.70;100.00;101241.00;5051350;28;20082;-61
2022/10/26 00:53:23;;;;;;;22.90;15.70;;;;;;;9.71;100.00;101231.59;5051722;28;20028;-61
2022/10/26 00:55:51;;;;;;;22.08;15.63;;;;;;;9.66;100.00;101212.28;5051300;28;20035;-61
2022/10/26 00:58:18;;;;;;;24.98;16.20;;;;;;;9.75;100.00;101223.53;5049949;28;20183;-60
2022/10/26 01:00:44;;;;;;;24.00;15.73;;;;;;;9.77;100.00;101238.72;5051701;28;20036;-61
2022/10/26 01:03:10;;;;;;;23.95;16.13;;;;;;;9.79;100.00;101246.69;5050018;28;20025;-60
2022/10/26 01:05:41;;;;;;;24.38;14.90;;;;;;;9.79;100.00;101242.00;5051284;28;20110;-60
2022/10/26 01:08:07;;;;;;;24.20;16.33;;;;;;;9.81;100.00;101261.91;5051440;28;20116;-61
2022/10/26 01:10:34;;;;;;;23.80;16.20;;;;;;;9.83;100.00;101242.25;5051346;28;20377;-61
2022/10/26 01:13:00;;;;;;;22.90;16.98;;;;;;;9.86;100.00;101254.66;5051176;28;20100;-60
2022/10/26 01:16:00;;;;;;;23.67;16.00;;;;;;;9.88;100.00;101250.47;5050084;28;20037;-62
2022/10/26 01:18:49;;;;;;;22.00;14.82;;;;;;;9.88;100.00;101239.41;5031544;28;20054;-61
2022/10/26 01:21:26;;;;;;;22.08;15.90;;;;;;;9.90;100.00;101237.19;5051079;28;20036;-61
2022/10/26 01:24:07;;;;;;;22.83;15.38;;;;;;;9.91;100.00;101229.75;5051179;28;20090;-61
2022/10/26 01:26:47;;;;;;;23.73;15.63;;;;;;;9.92;100.00;101226.69;5051164;28;20048;-61
2022/10/26 01:30:00;;;;;;;22.27;15.90;;;;;;;9.94;100.00;101226.38;5051291;28;20121;-62
2022/10/26 01:32:33;;;;;;;21.95;15.45;;;;;;;9.92;100.00;101218.38;5045887;28;20127;-60
2022/10/26 01:35:06;;;;;;;23.67;15.35;;;;;;;9.93;100.00;101228.34;5050109;28;20021;-60
2022/10/26 01:37:39;;;;;;;21.63;15.52;;;;;;;9.93;100.00;101227.50;5051271;28;20108;-60
2022/10/26 01:40:28;;;;;;;22.42;14.77;;;;;;;9.93;100.00;101225.56;5051104;28;20045;-60
2022/10/26 01:42:58;;;;;;;22.85;15.43;;;;;;;9.89;100.00;101209.88;5052171;28;20132;-61
2022/10/26 01:45:26;;;;;;;23.63;16.00;;;;;;;9.92;100.00;101210.09;5055425;28;20043;-61
2022/10/26 01:47:53;;;;;;;21.58;15.30;;;;;;;9.94;100.00;101213.41;5054873;28;20025;-60
2022/10/26 01:50:20;;;;;;;22.45;15.00;;;;;;;9.95;100.00;101208.69;5054870;28;20144;-62
2022/10/26 01:52:49;;;;;;;22.95;14.80;;;;;;;9.89;100.00;101196.03;5054800;28;20453;-60
2022/10/26 01:55:45;;;;;;;23.00;14.88;;;;;;;9.97;100.00;101203.69;5054887;28;20037;-60
2022/10/26 01:58:35;;;;;;;22.83;15.45;;;;;;;9.97;100.00;101203.69;5055029;28;20024;-61
2022/10/26 02:01:23;;;;;;;22.42;15.40;;;;;;;9.95;100.00;101183.81;5054653;28;20384;-61
2022/10/26 02:04:11;;;;;;;23.13;15.95;;;;;;;9.92;100.00;101178.88;5054811;28;20036;-61
2022/10/26 02:06:48;;;;;;;23.83;15.63;;;;;;;9.97;100.00;101182.38;5054612;28;20120;-59
2022/10/26 02:09:49;;;;;;;23.92;15.73;;;;;;;9.97;100.00;101181.59;5054127;28;20552;-60
2022/10/26 02:12:23;;;;;;;23.58;15.48;;;;;;;9.97;100.00;101176.06;5043486;28;20094;-59
2022/10/26 02:14:53;;;;;;;22.85;15.65;;;;;;;9.90;100.00;101167.28;5054111;28;20070;-60
2022/10/26 02:17:27;;;;;;;24.42;16.20;;;;;;;9.97;100.00;101187.91;5054285;28;20040;-60
2022/10/26 02:20:08;;;;;;;21.80;15.60;;;;;;;9.97;100.00;101184.34;5053897;28;20108;-61
2022/10/26 02:22:42;;;;;;;24.20;16.17;;;;;;;9.90;100.00;101173.63;5053924;28;20033;-61
2022/10/26 02:25:16;;;;;;;25.35;16.63;;;;;;;9.95;100.00;101181.88;5053619;28;20029;-63
2022/10/26 02:27:46;;;;;;;22.45;15.32;;;;;;;9.90;100.00;101175.59;5053746;28;20043;-61
2022/10/26 02:30:12;;;;;;;23.25;15.27;;;;;;;9.92;100.00;101176.94;5053478;28;20033;-61
2022/10/26 02:32:42;;;;;;;22.75;16.30;;;;;;;9.91;100.00;101183.56;5053460;28;20118;-61
2022/10/26 02:35:08;;;;;;;24.73;17.00;;;;;;;9.91;100.00;101177.25;5052108;28;20036;-61
2022/10/26 02:37:36;;;;;;;25.40;15.98;;;;;;;9.88;100.00;101175.06;5053462;28;20025;-61
2022/10/26 02:40:08;;;;;;;24.10;17.40;;;;;;;9.89;100.00;101173.94;5053345;28;20032;-60
2022/10/26 02:42:34;;;;;;;24.58;16.65;;;;;;;9.89;100.00;101171.19;5053312;28;20461;-61
2022/10/26 02:45:05;;;;;;;23.45;16.73;;;;;;;9.83;100.00;101156.59;5053258;28;20032;-61
2022/10/26 02:47:32;;;;;;;24.23;17.42;;;;;;;9.89;100.00;101168.41;5053336;28;20091;-60
2022/10/26 02:49:58;;;;;;;25.27;17.15;;;;;;;9.89;100.00;101154.59;5053295;28;20025;-60
2022/10/26 02:52:48;;;;;;;23.95;16.58;;;;;;;9.83;100.00;101153.81;5053353;28;20090;-60
2022/10/26 02:55:19;;;;;;;25.17;17.20;;;;;;;9.90;100.00;101162.59;5052757;28;20106;-60
2022/10/26 02:57:48;;;;;;;24.10;16.52;;;;;;;9.90;100.00;101162.59;5053193;28;20104;-60
2022/10/26 03:00:16;;;;;;;23.90;16.92;;;;;;;9.88;100.00;101156.53;5053001;28;20024;-60
2022/10/26 03:02:44;;;;;;;24.70;16.92;;;;;;;9.87;100.00;101152.09;5053358;28;20032;-61
2022/10/26 03:05:14;;;;;;;21.65;16.27;;;;;;;9.88;100.00;101152.94;5053043;28;20040;-61
2022/10/26 03:07:40;;;;;;;25.25;15.82;;;;;;;9.87;100.00;101149.34;5053003;28;20511;-60
2022/10/26 03:10:05;;;;;;;23.05;16.20;;;;;;;9.86;100.00;101152.41;5052989;28;20025;-60
2022/10/26 03:12:31;;;;;;;23.42;15.32;;;;;;;9.86;100.00;101149.66;5053012;28;20029;-60
2022/10/26 03:14:56;;;;;;;22.17;15.63;;;;;;;9.85;100.00;101146.06;5052985;28;20024;-59
2022/10/26 03:17:21;;;;;;;22.02;15.48;;;;;;;9.84;100.00;101148.00;5053001;28;20033;-60
2022/10/26 03:19:47;;;;;;;22.55;15.93;;;;;;;9.83;100.00;101143.59;5052920;28;20028;-62
2022/10/26 03:22:12;;;;;;;24.27;15.57;;;;;;;9.81;100.00;101145.84;5052812;28;20025;-60
2022/10/26 03:24:37;;;;;;;23.35;15.57;;;;;;;9.82;100.00;101147.47;5052863;28;20032;-60
2022/10/26 03:27:02;;;;;;;24.25;15.90;;;;;;;9.81;100.00;101145.00;5052671;28;20057;-60
2022/10/26 03:29:28;;;;;;;23.63;15.25;;;;;;;9.80;100.00;101146.94;5051420;28;20352;-60
2022/10/26 03:31:54;;;;;;;21.08;15.23;;;;;;;9.80;100.00;101149.72;5052635;28;20025;-60
2022/10/26 03:34:20;;;;;;;21.10;15.43;;;;;;;9.81;100.00;101153.28;5052784;28;20053;-59
2022/10/26 03:36:45;;;;;;;23.52;15.88;;;;;;;9.82;100.00;101152.19;5052435;28;20032;-60
2022/10/26 03:39:11;;;;;;;22.05;15.50;;;;;;;9.83;100.00;101153.81;5052346;28;20021;-60
2022/10/26 03:41:36;;;;;;;22.05;15.43;;;;;;;9.84;100.00;101148.00;5052589;28;20120;-60
2022/10/26 03:44:01;;;;;;;22.08;15.23;;;;;;;9.86;100.00;101146.88;5050917;28;20118;-61
2022/10/26 03:46:27;;;;;;;23.08;15.35;;;;;;;9.87;100.00;101138.28;5052265;28;20040;-61
2022/10/26 03:48:52;;;;;;;21.20;14.93;;;;;;;9.89;100.00;101138.81;5052146;28;20025;-60
2022/10/26 03:51:17;;;;;;;23.08;15.90;;;;;;;9.91;100.00;101138.56;5052210;28;20029;-60
2022/10/26 03:53:42;;;;;;;21.45;15.35;;;;;;;9.91;100.00;101139.34;5052311;28;20025;-60
2022/10/26 03:56:08;;;;;;;21.75;15.50;;;;;;;9.91;100.00;101141.31;5052227;28;20058;-60
2022/10/26 03:58:33;;;;;;;26.10;15.85;;;;;;;9.91;100.00;101136.59;5052148;28;20032;-61
2022/10/26 04:00:58;;;;;;;22.52;15.15;;;;;;;9.91;100.00;101141.31;5052314;28;20064;-60
2022/10/26 04:03:23;;;;;;;22.15;16.27;;;;;;;9.90;100.00;101139.66;5052084;28;20025;-61
2022/10/26 04:05:49;;;;;;;22.05;15.15;;;;;;;9.90;100.00;101136.91;5049676;28;20021;-60
2022/10/26 04:08:14;;;;;;;23.23;15.90;;;;;;;9.90;100.00;101139.66;5051719;28;20538;-60
2022/10/26 04:10:39;;;;;;;23.02;15.90;;;;;;;9.90;100.00;101128.63;5052049;28;20405;-60
2022/10/26 04:13:05;;;;;;;22.25;15.00;;;;;;;9.88;100.00;101133.59;5051754;28;20487;-60
2022/10/26 04:15:30;;;;;;;23.05;14.60;;;;;;;9.86;100.00;101136.66;5051857;28;20124;-60
2022/10/26 04:17:57;;;;;;;22.90;15.13;;;;;;;9.87;100.00;101145.78;5052001;28;20400;-60
2022/10/26 04:20:22;;;;;;;24.13;15.48;;;;;;;9.86;100.00;101138.59;5051998;28;20029;-60
2022/10/26 04:22:55;;;;;;;23.02;15.23;;;;;;;9.85;100.00;101137.78;5050401;28;20486;-61
2022/10/26 04:25:21;;;;;;;24.77;15.77;;;;;;;9.83;100.00;101140.00;5051539;28;20021;-61
2022/10/26 04:27:46;;;;;;;24.63;15.18;;;;;;;9.84;100.00;101139.72;5051573;28;20119;-61
2022/10/26 04:30:12;;;;;;;21.70;15.07;;;;;;;9.88;100.00;101141.88;5051515;28;20091;-61
2022/10/26 04:32:37;;;;;;;22.50;15.52;;;;;;;9.88;100.00;101139.94;5051512;28;20451;-61
2022/10/26 04:35:02;;;;;;;23.30;15.38;;;;;;;9.90;100.00;101134.94;5051934;28;20456;-61
2022/10/26 04:37:27;;;;;;;25.13;17.13;;;;;;;9.91;100.00;101130.25;5051259;28;20082;-59
2022/10/26 04:39:53;;;;;;;23.52;15.90;;;;;;;9.91;100.00;101125.53;5051303;28;20029;-60
2022/10/26 04:42:18;;;;;;;21.67;15.30;;;;;;;9.92;100.00;101124.44;5051124;28;20025;-59
2022/10/26 04:44:43;;;;;;;22.75;15.27;;;;;;;9.94;100.00;101122.19;5049689;28;20025;-59
2022/10/26 04:47:08;;;;;;;22.65;16.27;;;;;;;9.96;100.00;101119.13;5051282;28;20458;-60
2022/10/26 04:49:34;;;;;;;22.63;15.10;;;;;;;9.97;100.00;101123.53;5050946;28;20078;-61
2022/10/26 04:51:59;;;;;;;22.23;15.38;;;;;;;9.99;100.00;101127.66;5051024;28;20025;-61
2022/10/26 04:54:24;;;;;;;22.00;15.43;;;;;;;9.99;100.00;101127.66;5051055;28;20500;-61
2022/10/26 04:56:50;;;;;;;23.50;14.88;;;;;;;10.03;100.00;101122.34;5049461;28;20040;-60
2022/10/26 04:59:15;;;;;;;23.05;15.50;;;;;;;10.03;100.00;101122.34;5051182;28;20500;-60
2022/10/26 05:01:40;;;;;;;22.90;15.63;;;;;;;10.04;100.00;101121.22;5051007;28;20040;-60
2022/10/26 05:04:06;;;;;;;22.55;15.90;;;;;;;10.08;100.00;101124.22;5050965;28;20028;-61
2022/10/26 05:06:31;;;;;;;23.02;15.48;;;;;;;10.09;100.00;101131.41;5050887;28;20452;-64
2022/10/26 05:08:56;;;;;;;23.00;16.13;;;;;;;10.12;100.00;101125.28;5050887;28;20021;-60
2022/10/26 05:11:22;;;;;;;23.50;16.08;;;;;;;10.13;100.00;101132.47;5050998;28;20033;-60
2022/10/26 05:13:48;;;;;;;23.95;15.98;;;;;;;10.15;100.00;101131.06;5051019;28;20039;-60
2022/10/26 05:16:14;;;;;;;22.52;15.38;;;;;;;10.19;100.00;101122.97;5051006;28;20052;-60
2022/10/26 05:18:39;;;;;;;23.02;15.25;;;;;;;10.22;100.00;101129.84;5054637;28;20025;-60
2022/10/26 05:21:05;;;;;;;23.70;15.27;;;;;;;10.23;100.00;101124.03;5055077;28;20459;-60
2022/10/26 05:23:30;;;;;;;23.50;15.30;;;;;;;10.27;100.00;101129.81;5055246;28;20025;-60
2022/10/26 05:25:55;;;;;;;27.10;15.93;;;;;;;10.28;100.00;101125.91;5054958;28;20048;-60
2022/10/26 05:28:21;;;;;;;21.65;14.98;;;;;;;10.32;100.00;101134.44;5054840;28;20033;-60
2022/10/26 05:30:46;;;;;;;22.65;16.20;;;;;;;10.32;100.00;101123.38;5054806;28;20036;-60
2022/10/26 05:33:13;;;;;;;22.33;15.30;;;;;;;10.35;100.00;101131.91;5054867;28;20021;-60
2022/10/26 05:35:39;;;;;;;23.13;15.55;;;;;;;10.36;100.00;101136.31;5054642;28;20032;-60
2022/10/26 05:38:09;;;;;;;24.30;15.85;;;;;;;10.37;100.00;101139.88;5054640;28;20021;-60
2022/10/26 05:40:34;;;;;;;22.73;15.38;;;;;;;10.37;100.00;101134.34;5054800;28;20382;-60
2022/10/26 05:43:00;;;;;;;22.23;15.27;;;;;;;10.37;100.00;101140.75;5054729;28;20195;-61
2022/10/26 05:45:26;;;;;;;23.40;15.80;;;;;;;10.37;100.00;101137.13;5054662;28;20483;-61
2022/10/26 05:47:51;;;;;;;23.25;15.70;;;;;;;10.37;100.00;101140.75;5054557;28;20114;-60
2022/10/26 05:50:17;;;;;;;21.05;14.95;;;;;;;10.36;100.00;101141.00;5054346;28;20162;-61
2022/10/26 05:52:44;;;;;;;21.75;14.52;;;;;;;10.34;100.00;101140.50;5054374;28;20116;-60
2022/10/26 05:55:15;;;;;;;22.50;15.25;;;;;;;10.36;100.00;101133.53;5054290;28;20037;-61
2022/10/26 05:57:40;;;;;;;22.35;14.55;;;;;;;10.37;100.00;101149.06;5054554;28;20489;-61
2022/10/26 06:00:15;;;;;;;22.98;14.60;;;;;;;10.32;100.00;101137.22;5054537;28;20469;-62
2022/10/26 06:02:50;;;;;;;21.33;14.45;;;;;;;10.41;100.00;101149.28;5054227;28;20048;-60
2022/10/26 06:05:20;;;;;;;22.15;14.48;;;;;;;10.37;100.00;101148.19;5054333;28;20554;-61
2022/10/26 06:07:45;;;;;;;21.80;14.38;;;;;;;10.46;100.00;101151.97;5054376;28;20044;-60
2022/10/26 06:10:11;;;;;;;22.05;14.57;;;;;;;10.47;100.00;101152.81;5054281;28;20037;-60
2022/10/26 06:12:37;;;;;;;21.33;14.07;;;;;;;10.49;100.00;101161.59;5054409;28;20024;-60
2022/10/26 06:15:03;;;;;;;20.08;14.23;;;;;;;10.51;100.00;101171.28;5054491;28;20491;-59
2022/10/26 06:17:42;;;;;;;22.00;14.25;;;;;;;10.53;100.00;101173.72;5054354;28;20031;-60
2022/10/26 06:20:17;;;;;;;21.88;15.50;;;;;;;10.56;100.00;101170.38;5054427;28;20029;-60
2022/10/26 06:22:51;;;;;;;22.38;15.40;;;;;;;10.59;100.00;101167.84;5052945;28;20078;-60
2022/10/26 06:25:44;;;;;;;24.92;14.77;;;;;;;10.53;100.00;101159.91;5054160;28;20490;-60
2022/10/26 06:28:34;;;;;;;23.27;14.40;;;;;;;10.59;100.00;101170.59;5053917;28;20448;-60
2022/10/26 06:30:59;;;;;;;20.95;14.20;;;;;;;10.63;100.00;101172.78;5054286;28;20055;-61
2022/10/26 06:33:26;;;;;;;21.40;13.65;;;;;;;10.63;100.00;101175.53;5054111;28;20021;-61
2022/10/26 06:35:51;;;;;;;21.35;13.93;;;;;;;10.64;100.00;101177.16;5053948;28;20025;-61
2022/10/26 06:38:19;;;;;;;22.10;13.55;;;;;;;10.63;100.00;101173.59;5054042;28;20029;-61
2022/10/26 06:40:48;;;;;;;22.60;14.27;;;;;;;10.63;100.00;101176.34;5054055;28;20078;-60
2022/10/26 06:43:22;;;;;;;21.48;13.73;;;;;;;10.63;100.00;101178.31;5054174;28;20464;-60
2022/10/26 06:45:55;;;;;;;23.38;14.50;;;;;;;10.59;100.00;101169.75;5053994;28;20158;-60
2022/10/26 06:48:27;;;;;;;23.60;15.27;;;;;;;10.56;100.00;101162.88;5053910;28;20024;-60
2022/10/26 06:50:52;;;;;;;21.77;14.60;;;;;;;10.59;100.00;101164.22;5054033;28;20025;-60
2022/10/26 06:53:29;;;;;;;22.05;14.02;;;;;;;10.53;100.00;101157.94;5054057;28;20048;-61
2022/10/26 06:55:57;;;;;;;22.67;14.30;;;;;;;10.54;100.00;101150.47;5053742;28;20037;-60
2022/10/26 06:58:27;;;;;;;22.63;13.55;;;;;;;10.61;100.00;101160.06;5053747;28;20040;-61
2022/10/26 07:00:53;;;;;;;22.45;13.57;;;;;;;10.65;100.00;101156.69;5053639;28;20457;-61
2022/10/26 07:03:19;;;;;;;21.13;13.57;;;;;;;10.67;100.00;101158.03;5053956;28;20032;-61
2022/10/26 07:05:45;;;;;;;21.65;12.95;;;;;;;10.67;100.00;101143.38;5053725;28;20025;-61
2022/10/26 07:08:11;;;;;;;22.73;13.95;;;;;;;10.70;100.00;101151.91;5053610;28;20100;-61
2022/10/26 07:10:38;;;;;;;19.65;13.00;;;;;;;10.71;100.00;101155.50;5053805;28;20472;-61
2022/10/26 07:13:07;;;;;;;22.30;13.32;;;;;;;10.74;100.00;101160.41;5053562;28;20029;-60
2022/10/26 07:15:34;;;;;;;20.45;13.00;;;;;;;10.75;100.00;101162.91;5053253;28;20032;-60
2022/10/26 07:17:59;;;;;;;22.50;13.30;;;;;;;10.76;100.00;101164.56;5052009;28;20381;-60
2022/10/26 07:20:24;;;;;;;20.70;13.00;;;;;;;10.79;100.00;101165.06;5053558;28;20021;-60
2022/10/26 07:22:54;;;;;;;20.20;12.70;;;;;;;10.75;100.00;101171.19;5053825;28;20052;-60
2022/10/26 07:25:19;;;;;;;21.50;13.07;;;;;;;10.84;100.00;101178.81;5053317;28;20115;-61
2022/10/26 07:27:45;;;;;;;20.48;12.50;;;;;;;10.84;100.00;101174.09;5053278;28;20033;-61
2022/10/26 07:30:11;;;;;;;20.27;12.63;;;;;;;10.89;100.00;101176.81;5053187;28;20033;-61
2022/10/26 07:32:36;;;;;;;23.17;13.05;;;;;;;10.94;100.00;101178.69;5053296;28;20446;-60
2022/10/26 07:35:01;;;;;;;25.38;15.40;;;;;;;11.01;100.00;101187.41;5053153;28;20028;-61
2022/10/26 07:37:27;;;;;;;19.73;12.77;;;;;;;11.07;100.00;101200.03;5053263;28;20464;-61
2022/10/26 07:39:52;;;;;;;19.63;12.90;;;;;;;11.13;100.00;101198.03;5052737;28;20029;-60
2022/10/26 07:42:17;;;;;;;20.58;13.20;;;;;;;11.18;100.00;101206.25;5052391;28;20029;-61
2022/10/26 07:44:43;;;;;;;19.80;12.57;;;;;;;11.25;100.00;101205.84;5053133;28;20020;-61
2022/10/26 07:47:08;;;;;;;22.27;12.88;;;;;;;11.29;100.00;101200.56;5052898;28;20388;-61
2022/10/26 07:49:34;;;;;;;21.48;13.00;;;;;;;11.33;100.00;101196.88;5053155;28;20411;-61
2022/10/26 07:51:59;;;;;;;19.85;13.05;;;;;;;11.38;100.00;101198.75;5052965;28;20028;-63
2022/10/26 07:54:25;;;;;;;21.17;13.27;;;;;;;11.42;100.00;101210.84;5052857;28;20048;-61
2022/10/26 07:56:51;;;;;;;21.60;13.15;;;;;;;11.49;100.00;101213.22;5052557;28;20033;-61
2022/10/26 07:59:17;;;;;;;20.67;13.43;;;;;;;11.57;100.00;101228.34;5052417;28;20094;-59
2022/10/26 08:01:42;;;;;;;22.60;13.02;;;;;;;11.66;100.00;101230.09;5052593;28;20151;-60
2022/10/26 08:04:08;;;;;;;20.38;12.57;;;;;;;11.84;100.00;101242.28;5052345;28;20026;-60
2022/10/26 08:06:33;;;;;;;21.85;12.55;;;;;;;12.05;100.00;101236.34;5052443;28;20032;-60
2022/10/26 08:08:59;;;;;;;21.35;12.70;;;;;;;12.20;100.00;101235.25;5052626;28;20124;-61
2022/10/26 08:11:24;;;;;;;22.42;13.23;;;;;;;12.31;100.00;101233.91;5052655;28;20116;-60
2022/10/26 08:13:54;;;;;;;19.40;12.70;;;;;;;12.42;100.00;101236.47;5052337;28;20490;-59
2022/10/26 08:16:20;;;;;;;22.67;12.82;;;;;;;12.55;100.00;101234.81;5052514;28;20092;-60
2022/10/26 08:18:50;;;;;;;18.98;12.57;;;;;;;12.70;100.00;101242.00;5051157;28;20388;-60
2022/10/26 08:21:16;;;;;;;21.33;12.45;;;;;;;12.82;100.00;101247.00;5052189;28;20120;-59
2022/10/26 08:23:42;;;;;;;22.60;12.48;;;;;;;12.90;100.00;101255.44;5052215;28;20274;-60
2022/10/26 08:26:10;;;;;;;20.73;12.15;;;;;;;12.96;100.00;101250.59;5051999;28;20088;-60
2022/10/26 08:28:36;;;;;;;18.83;11.82;;;;;;;13.04;100.00;101247.06;5051885;28;20047;-60
2022/10/26 08:31:01;;;;;;;19.63;12.10;;;;;;;13.10;100.00;101237.47;5052034;28;20127;-60
2022/10/26 08:33:27;;;;;;;19.45;12.30;;;;;;;13.17;100.00;101241.78;5050652;28;20543;-61
2022/10/26 08:35:57;;;;;;;18.48;11.50;;;;;;;13.22;100.00;101239.72;5051980;28;20056;-61
2022/10/26 08:38:23;;;;;;;20.52;11.48;;;;;;;13.25;100.00;101249.38;5052211;28;20033;-61
2022/10/26 08:40:48;;;;;;;19.75;11.50;;;;;;;13.35;100.00;101242.72;5051886;28;20207;-61
2022/10/26 08:43:22;;;;;;;20.10;11.75;;;;;;;13.34;100.00;101241.09;5051649;28;20095;-61
2022/10/26 08:46:28;;;;;;;19.95;12.02;;;;;;;13.47;100.00;101264.41;5052036;28;20100;-61
2022/10/26 08:48:59;;;;;;;19.55;11.55;;;;;;;13.51;100.00;101254.31;5048720;28;20400;-61
2022/10/26 08:51:36;;;;;;;20.58;11.73;;;;;;;13.53;100.00;101247.31;5051118;28;20025;-61
2022/10/26 08:54:09;;;;;;;22.20;11.35;;;;;;;13.65;100.00;101254.25;5050332;28;20112;-61
2022/10/26 08:56:39;;;;;;;18.83;11.70;;;;;;;13.71;100.00;101252.97;5051551;28;20068;-61
2022/10/26 08:59:19;;;;;;;19.77;11.27;;;;;;;13.80;100.00;101253.03;5051712;28;20024;-61
2022/10/26 09:01:44;;;;;;;19.00;10.90;;;;;;;13.88;100.00;101246.69;5051585;28;20029;-60
2022/10/26 09:04:12;;;;;;;20.30;11.20;;;;;;;13.94;100.00;101247.38;5051749;28;20392;-61
2022/10/26 09:07:14;;;;;;;20.17;11.73;;;;;;;14.04;100.00;101249.91;5051743;28;20029;-61
2022/10/26 09:10:00;;;;;;;18.75;10.65;;;;;;;14.15;100.00;101245.69;5051370;28;20033;-60
2022/10/26 09:12:52;;;;;;;18.58;10.77;;;;;;;14.24;100.00;101234.59;5051656;28;20089;-61
2022/10/26 09:15:42;;;;;;;17.83;10.98;;;;;;;14.35;100.00;101232.34;5051591;28;20462;-61
2022/10/26 09:18:16;;;;;;;19.23;10.90;;;;;;;14.45;100.00;101245.94;5051340;28;20033;-61
2022/10/26 09:20:50;;;;;;;18.48;10.80;;;;;;;14.54;100.00;101254.34;5051351;28;20102;-61
2022/10/26 09:23:34;;;;;;;19.23;10.90;;;;;;;14.63;100.00;101257.97;5051333;28;20021;-60
2022/10/26 09:26:01;;;;;;;18.38;11.15;;;;;;;14.65;100.00;101261.25;5049921;28;20056;-61
2022/10/26 09:28:36;;;;;;;18.88;10.65;;;;;;;14.80;100.00;101268.34;5051220;28;20025;-59
2022/10/26 09:31:03;;;;;;;21.58;11.23;;;;;;;14.88;100.00;101272.28;5051049;28;20108;-59
2022/10/26 09:33:33;;;;;;;17.25;10.10;;;;;;;14.96;100.00;101274.28;5049898;28;20025;-60
2022/10/26 09:36:25;;;;;;;17.02;9.55;;;;;;;15.09;100.00;101282.81;5051294;28;20037;-60
2022/10/26 09:38:58;;;;;;;17.98;9.57;;;;;;;15.20;100.00;101295.28;5047581;28;20135;-60
2022/10/26 09:41:58;;;;;;;17.93;9.17;;;;;;;15.36;100.00;101284.47;5051327;28;20025;-60
2022/10/26 09:44:26;;;;;;;17.38;9.73;;;;;;;15.44;99.22;101293.97;5050957;28;20263;-60
2022/10/26 09:47:21;;;;;;;18.20;9.70;;;;;;;15.57;99.35;101298.56;5051144;28;20029;-60
2022/10/26 09:49:51;;;;;;;17.33;9.35;;;;;;;15.67;97.43;101311.34;5050929;28;20052;-60
2022/10/26 09:52:16;;;;;;;18.23;9.30;;;;;;;15.73;97.26;101323.13;5051199;28;20449;-60
2022/10/26 09:54:42;;;;;;;16.00;9.05;;;;;;;15.84;96.99;101320.88;5050995;28;20035;-59
2022/10/26 09:57:11;;;;;;;19.60;9.23;;;;;;;15.91;95.94;101318.41;5051087;28;20104;-60
2022/10/26 09:59:39;;;;;;;19.48;9.32;;;;;;;15.97;95.46;101325.44;5051016;28;20459;-60
2022/10/26 10:02:33;;;;;;;17.45;9.15;;;;;;;15.99;96.31;101331.50;5049934;28;20036;-60
2022/10/26 10:04:58;;;;;;;;;;;;;;;16.02;97.57;101322.47;5053644;28;20035;-60
2022/10/26 10:07:23;;;;;;;15.15;9.20;;;;;;;16.04;95.89;101324.94;5054727;28;19912;-60
2022/10/26 10:10:15;;;;;;;18.80;9.75;;;;;;;16.07;96.65;101324.28;5054539;28;20107;-60
2022/10/26 10:12:41;;;;;;;18.10;9.80;;;;;;;16.17;96.09;101343.47;5054567;28;20021;-60
2022/10/26 10:15:17;;;;;;;17.13;9.40;;;;;;;16.20;95.66;101342.78;5054613;28;20112;-60
2022/10/26 10:17:50;;;;;;;17.23;9.88;;;;;;;16.24;94.98;101345.75;5054970;28;20138;-60
2022/10/26 10:20:22;;;;;;;15.52;9.23;;;;;;;16.30;95.05;101355.56;5054611;28;20029;-60
2022/10/26 10:23:02;;;;;;;18.08;9.50;;;;;;;16.33;95.35;101354.06;5054534;28;20028;-60
2022/10/26 10:25:34;;;;;;;17.83;9.35;;;;;;;16.36;94.29;101354.22;5054294;28;20045;-60
2022/10/26 10:28:00;;;;;;;21.55;9.30;;;;;;;16.45;93.93;101362.59;5054452;28;20040;-59
2022/10/26 10:30:32;;;;;;;19.45;9.35;;;;;;;16.44;93.66;101368.50;5054173;28;20091;-59
2022/10/26 10:33:11;;;;;;;18.70;9.93;;;;;;;16.49;93.61;101380.31;5054413;28;20118;-59
2022/10/26 10:35:46;;;;;;;17.60;9.80;;;;;;;16.52;93.48;101385.22;5054074;28;20025;-59
2022/10/26 10:38:17;;;;;;;18.25;9.93;;;;;;;16.57;93.68;101392.59;5054132;28;20048;-60
2022/10/26 10:40:50;;;;;;;17.63;9.82;;;;;;;16.59;93.75;101381.91;5054040;28;20032;-60
2022/10/26 10:43:15;;;;;;;19.73;9.90;;;;;;;16.66;92.77;101381.41;5054108;28;20047;-60
2022/10/26 10:45:47;;;;;;;19.10;9.82;;;;;;;16.72;93.38;101393.22;5053960;28;20449;-60
2022/10/26 10:48:19;;;;;;;18.30;9.85;;;;;;;16.76;92.58;101386.63;5054713;28;20083;-61
2022/10/26 10:50:56;;;;;;;17.88;10.10;;;;;;;16.83;93.30;101397.25;5054051;28;20037;-60
2022/10/26 10:53:44;;;;;;;17.63;10.05;;;;;;;16.94;92.16;101401.34;5054187;28;20021;-60
2022/10/26 10:56:45;;;;;;;19.67;10.40;;;;;;;17.00;92.83;101402.00;5053741;28;20075;-60
2022/10/26 10:59:31;;;;;;;19.92;10.25;;;;;;;17.12;92.10;101406.84;5054126;28;20017;-60
2022/10/26 11:02:33;;;;;;;18.67;9.63;;;;;;;17.19;91.54;101400.72;5053683;28;20082;-60
2022/10/26 11:05:21;;;;;;;16.02;9.43;;;;;;;17.30;90.99;101407.56;5054172;28;20429;-60
2022/10/26 11:07:54;;;;;;;17.73;9.15;;;;;;;17.28;90.01;101401.50;5053686;28;20041;-60
2022/10/26 11:10:24;;;;;;;17.67;10.05;;;;;;;17.37;90.21;101404.25;5053560;28;20029;-60
2022/10/26 11:12:55;;;;;;;16.77;9.30;;;;;;;17.42;89.23;101418.84;5053382;28;20112;-60
2022/10/26 11:15:25;;;;;;;18.80;9.90;;;;;;;17.45;89.46;101432.16;5053046;28;20511;-60
2022/10/26 11:18:06;;;;;;;18.10;10.02;;;;;;;17.59;90.38;101437.47;5053336;28;20025;-60
2022/10/26 11:20:41;;;;;;;18.27;9.52;;;;;;;17.73;88.82;101433.59;5053357;28;20025;-60
2022/10/26 11:23:21;;;;;;;18.60;9.30;;;;;;;17.75;88.66;101428.50;5053200;28;20033;-60